createdAt,value
2023-03-28T00:02:03.841Z,100.00
2023-03-28T00:07:05.701Z,100.00
2023-03-28T00:12:09.622Z,100.00
2023-03-28T00:17:13.605Z,100.00
2023-03-28T00:22:17.490Z,100.00
2023-03-28T00:27:19.243Z,100.00
2023-03-28T00:32:23.613Z,100.00
2023-03-28T00:37:27.773Z,100.00
2023-03-28T00:42:30.766Z,100.00
2023-03-28T00:47:37.694Z,100.00
2023-03-28T00:52:49.808Z,100.00
2023-03-28T00:57:54.712Z,100.00
2023-03-28T01:02:58.370Z,100.00
2023-03-28T01:08:29.472Z,100.00
2023-03-28T01:13:35.244Z,100.00
2023-03-28T01:18:41.387Z,100.00
2023-03-28T01:24:12.646Z,100.00
2023-03-28T01:29:24.909Z,100.00
2023-03-28T01:34:43.605Z,100.00
2023-03-28T01:40:22.214Z,100.00
2023-03-28T01:45:39.531Z,100.00
2023-03-28T01:51:01.318Z,100.00
2023-03-28T01:56:18.759Z,100.00
2023-03-28T02:01:24.712Z,100.00
2023-03-28T02:06:28.320Z,100.00
2023-03-28T02:11:33.413Z,100.00
2023-03-28T02:17:01.915Z,100.00
2023-03-28T02:22:44.653Z,100.00
2023-03-28T02:28:25.725Z,100.00
2023-03-28T02:33:52.372Z,100.00
2023-03-28T02:39:00.396Z,100.00
2023-03-28T02:44:13.458Z,100.00
2023-03-28T02:49:50.284Z,100.00
2023-03-28T02:55:17.658Z,100.00
2023-03-28T03:00:36.464Z,100.00
2023-03-28T03:05:38.165Z,100.00
2023-03-28T03:10:45.497Z,100.00
2023-03-28T03:15:47.648Z,100.00
2023-03-28T03:20:57.577Z,100.00
2023-03-28T03:26:02.145Z,100.00
2023-03-28T03:31:11.055Z,100.00
2023-03-28T03:36:31.986Z,100.00
2023-03-28T03:41:39.776Z,100.00
2023-03-28T03:46:41.514Z,100.00
2023-03-28T03:51:45.631Z,100.00
2023-03-28T03:56:53.301Z,100.00
2023-03-28T04:01:57.706Z,100.00
2023-03-28T04:06:59.551Z,100.00
2023-03-28T04:12:02.669Z,100.00
2023-03-28T04:17:06.752Z,100.00
2023-03-28T04:22:12.762Z,100.00
2023-03-28T04:27:20.143Z,100.00
2023-03-28T04:32:26.087Z,100.00
2023-03-28T04:37:41.494Z,100.00
2023-03-28T04:42:45.951Z,100.00
2023-03-28T04:47:53.793Z,100.00
2023-03-28T04:52:57.666Z,100.00
2023-03-28T04:57:59.682Z,100.00
2023-03-28T05:03:05.031Z,100.00
2023-03-28T05:08:20.853Z,100.00
2023-03-28T05:13:23.084Z,100.00
2023-03-28T05:18:39.396Z,100.00
2023-03-28T05:23:51.386Z,100.00
2023-03-28T05:28:58.768Z,100.00
2023-03-28T05:34:02.859Z,100.00
2023-03-28T05:39:15.837Z,100.00
2023-03-28T05:44:18.887Z,100.00
2023-03-28T05:49:49.629Z,100.00
2023-03-28T05:54:52.303Z,100.00
2023-03-28T05:59:55.974Z,100.00
2023-03-28T06:05:00.238Z,100.00
2023-03-28T06:10:04.279Z,100.00
2023-03-28T06:15:08.100Z,100.00
2023-03-28T06:20:16.044Z,100.00
2023-03-28T06:25:21.956Z,100.00
2023-03-28T06:30:26.403Z,100.00
2023-03-28T06:35:28.911Z,100.00
2023-03-28T06:40:31.121Z,100.00
2023-03-28T06:45:39.213Z,100.00
2023-03-28T06:50:50.330Z,100.00
2023-03-28T06:55:54.942Z,100.00
2023-03-28T07:00:59.811Z,100.00
2023-03-28T07:06:06.540Z,100.00
2023-03-28T07:11:08.629Z,100.00
2023-03-28T07:16:13.570Z,100.00
2023-03-28T07:21:19.347Z,100.00
2023-03-28T07:26:22.279Z,100.00
2023-03-28T07:31:26.165Z,100.00
2023-03-28T07:36:28.900Z,100.00
2023-03-28T07:41:37.300Z,100.00
2023-03-28T07:46:40.256Z,100.00
2023-03-28T07:51:42.097Z,100.00
2023-03-28T07:56:49.764Z,100.00
2023-03-28T08:01:59.541Z,100.00
2023-03-28T08:07:04.104Z,100.00
2023-03-28T08:12:11.318Z,95.46
2023-03-28T08:17:14.170Z,92.82
2023-03-28T08:22:17.592Z,93.66
2023-03-28T08:27:28.946Z,91.88
2023-03-28T08:32:39.040Z,91.81
2023-03-28T08:37:40.826Z,94.70
2023-03-28T08:42:51.403Z,94.40
2023-03-28T08:48:08.240Z,94.84
2023-03-28T08:53:23.126Z,92.74
2023-03-28T08:58:26.579Z,91.23
2023-03-28T09:03:31.709Z,87.50
2023-03-28T09:08:47.472Z,80.20
2023-03-28T09:14:20.853Z,77.45
2023-03-28T09:19:44.823Z,73.59
2023-03-28T09:25:20.357Z,68.31
2023-03-28T09:30:36.526Z,66.24
2023-03-28T09:35:40.059Z,66.98
2023-03-28T09:40:46.999Z,65.40
2023-03-28T09:46:03.103Z,62.44
2023-03-28T09:51:07.522Z,63.19
2023-03-28T09:56:26.051Z,60.23
2023-03-28T10:01:42.884Z,61.82
2023-03-28T10:07:32.379Z,62.27
2023-03-28T10:12:49.108Z,56.91
2023-03-28T10:17:53.572Z,54.67
2023-03-28T10:23:04.563Z,54.33
2023-03-28T10:28:15.175Z,55.93
2023-03-28T10:33:23.687Z,55.32
2023-03-28T10:38:49.408Z,53.93
2023-03-28T10:43:54.487Z,53.05
2023-03-28T10:49:21.578Z,56.90
2023-03-28T10:55:03.553Z,56.88
2023-03-28T11:00:28.014Z,57.94
2023-03-28T11:05:42.947Z,58.42
2023-03-28T11:10:53.651Z,57.61
2023-03-28T11:16:30.193Z,56.61
2023-03-28T11:22:28.128Z,53.12
2023-03-28T11:27:39.315Z,52.45
2023-03-28T11:33:01.337Z,53.99
2023-03-28T11:38:23.793Z,54.79
2023-03-28T11:43:35.017Z,55.63
2023-03-28T11:48:43.632Z,54.54
2023-03-28T11:54:24.347Z,52.95
2023-03-28T11:59:49.501Z,54.43
2023-03-28T12:04:58.831Z,52.63
2023-03-28T12:10:27.245Z,52.95
2023-03-28T12:15:51.093Z,54.83
2023-03-28T12:21:07.751Z,53.71
2023-03-28T12:26:47.389Z,53.95
2023-03-28T12:31:57.403Z,54.28
2023-03-28T12:37:19.033Z,52.00
2023-03-28T12:42:23.465Z,53.22
2023-03-28T12:47:38.927Z,53.86
2023-03-28T12:52:43.864Z,54.57
2023-03-28T12:57:56.298Z,58.13
2023-03-28T13:03:53.194Z,57.76
2023-03-28T13:09:16.977Z,57.44
2023-03-28T13:14:37.379Z,57.55
2023-03-28T13:19:42.174Z,56.76
2023-03-28T13:24:44.087Z,55.46
2023-03-28T13:29:53.089Z,55.07
2023-03-28T13:34:59.950Z,54.53
2023-03-28T13:40:01.721Z,53.33
2023-03-28T13:45:06.660Z,50.83
2023-03-28T13:50:29.807Z,51.85
2023-03-28T13:55:32.223Z,49.01
2023-03-28T14:00:34.263Z,48.87
2023-03-28T14:05:46.717Z,48.89
2023-03-28T14:10:51.040Z,50.12
2023-03-28T14:15:53.680Z,48.99
2023-03-28T14:21:01.817Z,50.13
2023-03-28T14:26:12.405Z,47.99
2023-03-28T14:31:38.588Z,47.03
2023-03-28T14:37:00.958Z,45.19
2023-03-28T14:42:15.812Z,44.39
2023-03-28T14:47:26.939Z,45.36
2023-03-28T14:52:31.524Z,45.56
2023-03-28T14:57:37.698Z,43.81
2023-03-28T15:02:42.770Z,42.67
2023-03-28T15:07:47.265Z,42.97
2023-03-28T15:12:59.583Z,44.46
2023-03-28T15:18:06.748Z,44.43
2023-03-28T15:23:15.580Z,44.36
2023-03-28T15:28:20.001Z,41.38
2023-03-28T15:33:29.228Z,42.88
2023-03-28T15:38:41.105Z,44.50
2023-03-28T15:43:55.546Z,46.41
2023-03-28T15:49:00.842Z,46.83
2023-03-28T15:54:03.411Z,48.26
2023-03-28T15:59:18.490Z,49.96
2023-03-28T16:04:29.176Z,49.53
2023-03-28T16:09:32.027Z,48.60
2023-03-28T16:14:35.804Z,49.25
2023-03-28T16:20:16.377Z,49.04
2023-03-28T16:25:18.489Z,50.06
2023-03-28T16:30:31.547Z,50.48
2023-03-28T16:35:35.975Z,50.63
2023-03-28T16:40:43.055Z,51.93
2023-03-28T16:45:49.574Z,52.05
2023-03-28T16:50:58.623Z,52.77
2023-03-28T16:56:03.956Z,52.75
2023-03-28T17:01:19.545Z,52.41
2023-03-28T17:06:22.708Z,51.95
2023-03-28T17:11:30.823Z,51.46
2023-03-28T17:16:32.987Z,51.98
2023-03-28T17:21:35.166Z,53.86
2023-03-28T17:26:37.286Z,53.88
2023-03-28T17:31:43.886Z,53.89
2023-03-28T17:36:46.128Z,53.71
2023-03-28T17:41:48.576Z,54.77
2023-03-28T17:46:50.552Z,55.46
2023-03-28T17:51:56.845Z,55.60
2023-03-28T17:56:59.628Z,55.69
2023-03-28T18:02:03.009Z,56.65
2023-03-28T18:07:16.225Z,56.92
2023-03-28T18:12:22.358Z,56.74
2023-03-28T18:17:26.504Z,57.49
2023-03-28T18:22:29.193Z,58.15
2023-03-28T18:27:33.424Z,58.13
2023-03-28T18:32:38.031Z,59.33
2023-03-28T18:37:42.254Z,59.54
2023-03-28T18:42:44.646Z,58.39
2023-03-28T18:47:49.147Z,59.17
2023-03-28T18:52:53.526Z,59.87
2023-03-28T18:57:56.038Z,61.03
2023-03-28T19:02:58.018Z,61.01
2023-03-28T19:07:59.998Z,60.44
2023-03-28T19:13:01.916Z,61.28
2023-03-28T19:18:05.624Z,62.15
2023-03-28T19:23:10.333Z,65.86
2023-03-28T19:28:12.724Z,70.01
2023-03-28T19:33:14.920Z,77.06
2023-03-28T19:38:17.285Z,77.63
2023-03-28T19:43:24.009Z,78.09
2023-03-28T19:48:31.233Z,79.36
2023-03-28T19:53:33.439Z,79.10
2023-03-28T19:58:45.444Z,77.95
2023-03-28T20:03:52.585Z,78.59
2023-03-28T20:08:56.224Z,78.12
2023-03-28T20:14:03.362Z,80.25
2023-03-28T20:19:14.292Z,82.81
2023-03-28T20:24:18.448Z,86.43
2023-03-28T20:29:20.754Z,89.29
2023-03-28T20:34:27.746Z,91.82
2023-03-28T20:39:35.198Z,93.42
2023-03-28T20:44:39.940Z,97.03
2023-03-28T20:49:46.103Z,99.61
2023-03-28T20:54:49.969Z,100.00
2023-03-28T20:59:55.302Z,100.00
2023-03-28T21:04:59.712Z,100.00
2023-03-28T21:10:02.092Z,100.00
2023-03-28T21:15:06.757Z,100.00
2023-03-28T21:20:13.728Z,100.00
2023-03-28T21:25:15.974Z,100.00
2023-03-28T21:30:20.155Z,100.00
2023-03-28T21:35:24.273Z,100.00
2023-03-28T21:40:30.358Z,100.00
2023-03-28T21:45:35.118Z,100.00
2023-03-28T21:50:38.776Z,100.00
2023-03-28T21:55:41.057Z,100.00
2023-03-28T22:00:42.831Z,100.00
2023-03-28T22:05:46.761Z,100.00
2023-03-28T22:10:55.341Z,100.00
2023-03-28T22:15:59.836Z,100.00
2023-03-28T22:21:07.283Z,100.00
2023-03-28T22:26:11.075Z,100.00
2023-03-28T22:31:17.650Z,100.00
2023-03-28T22:36:21.960Z,100.00
2023-03-28T22:41:32.038Z,100.00
2023-03-28T22:46:40.723Z,100.00
2023-03-28T22:51:48.886Z,100.00
2023-03-28T22:56:50.642Z,100.00
2023-03-28T23:01:55.281Z,100.00
2023-03-28T23:07:01.727Z,100.00
2023-03-28T23:12:04.091Z,100.00
2023-03-28T23:17:05.753Z,100.00
2023-03-28T23:22:10.277Z,100.00
2023-03-28T23:27:26.648Z,100.00
2023-03-28T23:32:31.012Z,100.00
2023-03-28T23:37:34.527Z,100.00
2023-03-28T23:42:38.752Z,100.00
2023-03-28T23:47:44.034Z,100.00
2023-03-28T23:52:45.826Z,100.00
2023-03-28T23:57:49.958Z,100.00
